^^
Meteo Knjazevac Station Historical Data
Daily Summary for August 16, 2021 Units:  Both    English   Metric
Daily Weekly Monthly Yearly Custom
  High: Low: Average:
Temperature: 67.7 °F /  19.8 °C 62.3 °F /  16.8 °C 65.2 °F /  18.4 °C
Dew Point: 58 °F /  14.4 °C 56 °F /  13.3 °C 57.3 °F /  14.1 °C
Humidity: 80% 70% 76%
Wind Speed: 3mph /  4.8km/h - 2.4mph /  3.9km/h
Wind Gust: 8mph /  12.9km/h - -
Wind- - West
Pressure: 30.06 in /  1017.8 hPa 30.05 in /  1017.5 hPa -
Precipitation: 0.00 in /  0 mm    
Historical Graphs
 
 
Tabular Data for August 16, 2021
Time Temperature Dew Point Pressure Wind Wind Speed Wind Gust Humidity Rainfall Rate (Hourly) solar Conditions
00:00 67.7 °F /  19.8 °C 57.6 °F /  14.2 °C 30.06in /  1017.8hPa WSW 2mph /  3.2km/h 3mph /  4.8km/h 70% 0.00in /  0mm 0 W/m2
00:10 67.2 °F /  19.6 °C 57.8 °F /  14.3 °C 30.06in /  1017.8hPa WNW 3mph /  4.8km/h 5mph /  8km/h 72% 0.00in /  0mm 0 W/m2
00:20 67 °F /  19.4 °C 57.7 °F /  14.3 °C 30.06in /  1017.8hPa West 3mph /  4.8km/h 6mph /  9.7km/h 72% 0.00in /  0mm 0 W/m2
00:30 66.9 °F /  19.4 °C 58 °F /  14.4 °C 30.06in /  1017.8hPa West 3mph /  4.8km/h 5mph /  8km/h 73% 0.00in /  0mm 0 W/m2
00:40 66.7 °F /  19.3 °C 57.8 °F /  14.3 °C 30.06in /  1017.8hPa West 2mph /  3.2km/h 5mph /  8km/h 73% 0.00in /  0mm 0 W/m2
00:50 66.4 °F /  19.1 °C 57.5 °F /  14.2 °C 30.06in /  1017.8hPa West 2mph /  3.2km/h 5mph /  8km/h 73% 0.00in /  0mm 0 W/m2
01:00 66.4 °F /  19.1 °C 57.8 °F /  14.3 °C 30.06in /  1017.8hPa West 3mph /  4.8km/h 5mph /  8km/h 74% 0.00in /  0mm 0 W/m2
01:10 66.1 °F /  18.9 °C 57.5 °F /  14.2 °C 30.06in /  1017.8hPa WSW 2mph /  3.2km/h 5mph /  8km/h 74% 0.00in /  0mm 0 W/m2
01:20 65.5 °F /  18.6 °C 57.4 °F /  14.1 °C 30.05in /  1017.5hPa West 2mph /  3.2km/h 4mph /  6.4km/h 75% 0.00in /  0mm 0 W/m2
01:30 65.3 °F /  18.5 °C 57.2 °F /  14 °C 30.05in /  1017.5hPa West 3mph /  4.8km/h 5mph /  8km/h 75% 0.00in /  0mm 0 W/m2
01:40 65.1 °F /  18.4 °C 57.7 °F /  14.3 °C 30.05in /  1017.5hPa West 2mph /  3.2km/h 5mph /  8km/h 77% 0.00in /  0mm 0 W/m2
01:50 64.9 °F /  18.3 °C 57.6 °F /  14.2 °C 30.05in /  1017.5hPa WNW 3mph /  4.8km/h 7mph /  11.3km/h 77% 0.00in /  0mm 0 W/m2
02:00 64.8 °F /  18.2 °C 57.4 °F /  14.1 °C 30.05in /  1017.5hPa West 3mph /  4.8km/h 6mph /  9.7km/h 77% 0.00in /  0mm 0 W/m2
02:10 64.6 °F /  18.1 °C 57.2 °F /  14 °C 30.05in /  1017.5hPa West 3mph /  4.8km/h 8mph /  12.9km/h 77% 0.00in /  0mm 0 W/m2
02:20 64.2 °F /  17.9 °C 57.2 °F /  14 °C 30.05in /  1017.5hPa WSW 2mph /  3.2km/h 6mph /  9.7km/h 78% 0.00in /  0mm 0 W/m2
02:30 63.7 °F /  17.6 °C 56.7 °F /  13.7 °C 30.05in /  1017.5hPa West 2mph /  3.2km/h 5mph /  8km/h 78% 0.00in /  0mm 0 W/m2
02:40 63.3 °F /  17.4 °C 56.7 °F /  13.7 °C 30.05in /  1017.5hPa WSW 2mph /  3.2km/h 5mph /  8km/h 79% 0.00in /  0mm 0 W/m2
02:50 63 °F /  17.2 °C 56.4 °F /  13.6 °C 30.05in /  1017.5hPa West 1mph /  1.6km/h 3mph /  4.8km/h 79% 0.00in /  0mm 0 W/m2
03:00 62.8 °F /  17.1 °C 56.5 °F /  13.6 °C 30.05in /  1017.5hPa West 2mph /  3.2km/h 4mph /  6.4km/h 80% 0.00in /  0mm 0 W/m2
03:10 62.3 °F /  16.8 °C 56 °F /  13.3 °C 30.05in /  1017.5hPa West 2mph /  3.2km/h 5mph /  8km/h 80% 0.00in /  0mm 0 W/m2
Knjazevac, Serbia
Compliments of Weather Underground - 2 mb